Time,TemperatureF,DewpointF,PressureIn,WindDirection,WindDirectionDegrees,WindSpeedMPH,WindSpeedGustMPH,Humidity,HourlyPrecipIn,Conditions,Clouds,dailyrainin,SoftwareType,DateUTC
2013-07-04 00:01:00,59.9,48.2,27.43,ESE,113,0.0,0.9,65,0.00,,,0.00,WUHU216HW,2013-07-04 07:01:00,
2013-07-04 00:06:00,59.8,48.4,27.43,ESE,113,0.0,0.9,66,0.00,,,0.00,WUHU216HW,2013-07-04 07:06:00,
2013-07-04 00:11:00,59.4,48.4,27.43,ESE,113,0.0,0.4,67,0.00,,,0.00,WUHU216HW,2013-07-04 07:11:00,
2013-07-04 00:16:00,59.2,48.2,27.43,ESE,113,0.0,0.0,67,0.00,,,0.00,WUHU216HW,2013-07-04 07:16:00,
2013-07-04 00:21:00,59.0,48.1,27.43,ESE,113,0.4,0.4,67,0.00,,,0.00,WUHU216HW,2013-07-04 07:21:00,
2013-07-04 00:26:00,58.9,48.3,27.43,East,90,0.4,0.4,68,0.00,,,0.00,WUHU216HW,2013-07-04 07:26:00,
2013-07-04 00:31:00,58.7,48.2,27.43,East,90,0.0,0.4,68,0.00,,,0.00,WUHU216HW,2013-07-04 07:31:00,
2013-07-04 00:36:00,58.5,47.5,27.42,East,90,0.0,0.4,67,0.00,,,0.00,WUHU216HW,2013-07-04 07:36:00,
2013-07-04 00:41:00,58.3,47.8,27.42,East,90,0.2,0.4,68,0.00,,,0.00,WUHU216HW,2013-07-04 07:41:00,
2013-07-04 00:46:00,58.0,47.4,27.42,East,90,0.0,0.4,68,0.00,,,0.00,WUHU216HW,2013-07-04 07:46:00,
2013-07-04 00:51:00,57.8,47.7,27.42,East,90,0.4,0.4,69,0.00,,,0.00,WUHU216HW,2013-07-04 07:51:00,
2013-07-04 00:56:00,57.6,47.5,27.42,ENE,68,0.2,0.4,69,0.00,,,0.00,WUHU216HW,2013-07-04 07:56:00,
2013-07-04 01:01:00,57.4,47.4,27.42,ENE,68,0.7,0.7,69,0.00,,,0.00,WUHU216HW,2013-07-04 08:01:00,
2013-07-04 01:06:00,57.1,47.0,27.42,ENE,68,0.0,0.7,69,0.00,,,0.00,WUHU216HW,2013-07-04 08:06:00,
2013-07-04 01:11:00,56.9,47.2,27.42,ENE,68,0.0,0.4,70,0.00,,,0.00,WUHU216HW,2013-07-04 08:11:00,
2013-07-04 01:16:00,56.7,47.1,27.42,East,90,0.7,0.7,70,0.00,,,0.00,WUHU216HW,2013-07-04 08:16:00,
2013-07-04 01:21:00,56.5,47.3,27.42,ENE,68,0.2,0.7,71,0.00,,,0.00,WUHU216HW,2013-07-04 08:21:00,
2013-07-04 01:26:00,56.5,47.3,27.42,ENE,68,0.0,0.7,71,0.00,,,0.00,WUHU216HW,2013-07-04 08:26:00,
2013-07-04 01:31:00,56.3,47.1,27.42,ENE,68,0.2,0.7,71,0.00,,,0.00,WUHU216HW,2013-07-04 08:31:00,
2013-07-04 01:36:00,56.3,47.1,27.42,ENE,68,0.0,0.4,71,0.00,,,0.00,WUHU216HW,2013-07-04 08:36:00,
2013-07-04 01:41:00,56.3,47.1,27.42,ESE,113,0.0,0.4,71,0.00,,,0.00,WUHU216HW,2013-07-04 08:41:00,
2013-07-04 01:46:00,56.2,46.9,27.42,NE,45,0.4,0.4,71,0.00,,,0.00,WUHU216HW,2013-07-04 08:46:00,
2013-07-04 01:51:00,56.2,46.9,27.42,NE,45,0.0,0.4,71,0.00,,,0.00,WUHU216HW,2013-07-04 08:51:00,
2013-07-04 01:56:00,56.2,46.9,27.42,NE,45,0.0,0.4,71,0.00,,,0.00,WUHU216HW,2013-07-04 08:56:00,
2013-07-04 02:01:00,56.0,46.4,27.42,ESE,113,0.0,0.4,70,0.00,,,0.00,WUHU216HW,2013-07-04 09:01:00,
2013-07-04 02:06:00,56.0,46.7,27.42,SSE,158,0.0,0.0,71,0.00,,,0.00,WUHU216HW,2013-07-04 09:06:00,
2013-07-04 02:11:00,55.8,46.5,27.42,South,180,0.0,0.2,71,0.00,,,0.00,WUHU216HW,2013-07-04 09:11:00,
2013-07-04 02:12:00,55.8,46.5,27.42,South,180,0.0,0.2,71,0.00,,,0.00,WUHU216HW,2013-07-04 09:12:00,
2013-07-04 02:17:00,55.4,46.3,27.42,SSE,158,0.0,0.0,71,0.00,,,0.00,WUHU216HW,2013-07-04 09:17:00,
2013-07-04 02:22:00,55.3,46.1,27.42,ENE,68,0.7,0.7,71,0.00,,,0.00,WUHU216HW,2013-07-04 09:22:00,
2013-07-04 02:27:00,55.3,46.5,27.42,ENE,68,0.0,0.7,72,0.00,,,0.00,WUHU216HW,2013-07-04 09:27:00,
2013-07-04 02:32:00,55.3,46.5,27.42,ENE,68,0.0,0.0,72,0.00,,,0.00,WUHU216HW,2013-07-04 09:32:00,
2013-07-04 02:37:00,55.3,46.5,27.43,ESE,113,0.0,0.4,72,0.00,,,0.00,WUHU216HW,2013-07-04 09:37:00,
2013-07-04 02:42:00,55.8,46.5,27.43,SE,135,0.4,1.3,71,0.00,,,0.00,WUHU216HW,2013-07-04 09:42:00,
2013-07-04 02:47:00,56.5,46.9,27.42,NNE,23,0.2,1.3,70,0.00,,,0.00,WUHU216HW,2013-07-04 09:47:00,
2013-07-04 02:52:00,56.9,47.2,27.42,NNW,338,0.4,0.4,70,0.00,,,0.00,WUHU216HW,2013-07-04 09:52:00,
2013-07-04 02:57:00,57.1,47.0,27.42,NE,45,1.1,1.1,69,0.00,,,0.00,WUHU216HW,2013-07-04 09:57:00,
2013-07-04 03:02:00,57.1,47.0,27.42,NNE,23,0.7,1.1,69,0.00,,,0.00,WUHU216HW,2013-07-04 10:02:00,
2013-07-04 03:07:00,56.7,46.6,27.42,NE,45,1.1,1.8,69,0.00,,,0.00,WUHU216HW,2013-07-04 10:07:00,
2013-07-04 03:12:00,56.5,46.9,27.42,NE,45,0.7,1.8,70,0.00,,,0.00,WUHU216HW,2013-07-04 10:12:00,
2013-07-04 03:17:00,56.2,46.5,27.42,NE,45,0.4,1.6,70,0.00,,,0.00,WUHU216HW,2013-07-04 10:17:00,
2013-07-04 03:22:00,56.2,46.5,27.42,NE,45,0.4,1.1,70,0.00,,,0.00,WUHU216HW,2013-07-04 10:22:00,
2013-07-04 03:27:00,56.5,46.9,27.42,SE,135,0.9,0.9,70,0.00,,,0.00,WUHU216HW,2013-07-04 10:27:00,
2013-07-04 03:32:00,57.6,47.5,27.42,ESE,113,0.7,1.1,69,0.00,,,0.00,WUHU216HW,2013-07-04 10:32:00,
2013-07-04 03:37:00,58.9,47.9,27.42,SE,135,0.9,1.1,67,0.00,,,0.00,WUHU216HW,2013-07-04 10:37:00,
2013-07-04 03:42:00,59.6,47.8,27.42,SE,135,1.3,1.3,65,0.00,,,0.00,WUHU216HW,2013-07-04 10:42:00,
2013-07-04 03:47:00,60.1,47.9,27.42,SE,135,0.4,1.3,64,0.00,,,0.00,WUHU216HW,2013-07-04 10:47:00,
2013-07-04 03:52:00,60.1,47.9,27.42,ENE,68,0.2,0.9,64,0.00,,,0.00,WUHU216HW,2013-07-04 10:52:00,
2013-07-04 03:57:00,59.6,47.3,27.42,ENE,68,0.0,0.9,64,0.00,,,0.00,WUHU216HW,2013-07-04 10:57:00,
2013-07-04 04:02:00,58.9,46.7,27.42,NE,45,0.2,0.9,64,0.00,,,0.00,WUHU216HW,2013-07-04 11:02:00,
2013-07-04 04:07:00,58.5,46.7,27.42,East,90,0.0,0.7,65,0.00,,,0.00,WUHU216HW,2013-07-04 11:07:00,
2013-07-04 04:12:00,58.0,47.1,27.43,SE,135,1.1,1.1,67,0.00,,,0.00,WUHU216HW,2013-07-04 11:12:00,
2013-07-04 04:17:00,57.4,46.9,27.43,East,90,0.4,1.6,68,0.00,,,0.00,WUHU216HW,2013-07-04 11:17:00,
2013-07-04 04:22:00,57.2,46.4,27.43,East,90,0.0,1.6,67,0.00,,,0.00,WUHU216HW,2013-07-04 11:22:00,
2013-07-04 04:27:00,56.9,46.5,27.43,NE,45,0.0,0.4,68,0.00,,,0.00,WUHU216HW,2013-07-04 11:27:00,
2013-07-04 04:32:00,56.7,46.3,27.43,NE,45,0.0,0.4,68,0.00,,,0.00,WUHU216HW,2013-07-04 11:32:00,
2013-07-04 04:37:00,56.3,45.9,27.43,ESE,113,0.0,0.2,68,0.00,,,0.00,WUHU216HW,2013-07-04 11:37:00,
2013-07-04 04:42:00,56.2,46.9,27.43,SE,135,1.3,1.3,71,0.00,,,0.00,WUHU216HW,2013-07-04 11:42:00,
2013-07-04 04:47:00,55.8,46.9,27.43,ESE,113,1.6,1.8,72,0.00,,,0.00,WUHU216HW,2013-07-04 11:47:00,
2013-07-04 04:52:00,55.6,46.5,27.43,ESE,113,0.0,1.8,71,0.00,,,0.00,WUHU216HW,2013-07-04 11:52:00,
2013-07-04 04:57:00,55.4,46.3,27.43,ESE,113,0.0,1.6,71,0.00,,,0.00,WUHU216HW,2013-07-04 11:57:00,
2013-07-04 05:02:00,55.4,45.9,27.43,ESE,113,0.0,1.6,70,0.00,,,0.00,WUHU216HW,2013-07-04 12:02:00,
2013-07-04 05:07:00,55.4,46.3,27.43,ESE,113,0.0,0.0,71,0.00,,,0.00,WUHU216HW,2013-07-04 12:07:00,
2013-07-04 05:12:00,55.3,46.1,27.43,ESE,113,0.7,0.7,71,0.00,,,0.00,WUHU216HW,2013-07-04 12:12:00,
2013-07-04 05:17:00,55.1,46.3,27.43,SE,135,0.4,0.9,72,0.00,,,0.00,WUHU216HW,2013-07-04 12:17:00,
2013-07-04 05:22:00,55.1,45.9,27.43,SE,135,0.0,0.9,71,0.00,,,0.00,WUHU216HW,2013-07-04 12:22:00,
2013-07-04 05:27:00,54.9,46.1,27.43,ESE,113,0.4,0.9,72,0.00,,,0.00,WUHU216HW,2013-07-04 12:27:00,
2013-07-04 05:32:00,54.7,45.9,27.44,ESE,113,0.0,0.9,72,0.00,,,0.00,WUHU216HW,2013-07-04 12:32:00,
2013-07-04 05:37:00,54.7,45.9,27.44,East,90,0.0,0.0,72,0.00,,,0.00,WUHU216HW,2013-07-04 12:37:00,
2013-07-04 05:42:00,54.5,45.7,27.44,SE,135,0.4,0.7,72,0.00,,,0.00,WUHU216HW,2013-07-04 12:42:00,
2013-07-04 05:47:00,54.4,45.9,27.44,SE,135,0.7,1.1,73,0.00,,,0.00,WUHU216HW,2013-07-04 12:47:00,
2013-07-04 05:52:00,54.4,45.9,27.44,ESE,113,0.0,1.1,73,0.00,,,0.00,WUHU216HW,2013-07-04 12:52:00,
2013-07-04 05:57:00,54.4,45.9,27.44,SE,135,0.0,1.1,73,0.00,,,0.00,WUHU216HW,2013-07-04 12:57:00,
2013-07-04 06:02:00,54.5,47.1,27.44,ESE,113,1.8,1.8,76,0.00,,,0.00,WUHU216HW,2013-07-04 13:02:00,
2013-07-04 06:07:00,54.5,46.8,27.44,ESE,113,1.3,1.8,75,0.00,,,0.00,WUHU216HW,2013-07-04 13:07:00,
2013-07-04 06:12:00,54.9,47.1,27.44,SSE,158,0.9,1.3,75,0.00,,,0.00,WUHU216HW,2013-07-04 13:12:00,
2013-07-04 06:17:00,55.3,47.4,27.44,ESE,113,1.1,2.9,75,0.00,,,0.00,WUHU216HW,2013-07-04 13:17:00,
2013-07-04 06:22:00,55.4,47.3,27.44,ESE,113,0.2,2.9,74,0.00,,,0.00,WUHU216HW,2013-07-04 13:22:00,
2013-07-04 06:27:00,55.4,46.9,27.44,ESE,113,1.1,3.4,73,0.00,,,0.00,WUHU216HW,2013-07-04 13:27:00,
2013-07-04 06:32:00,55.8,47.6,27.44,ESE,113,2.9,3.4,74,0.00,,,0.00,WUHU216HW,2013-07-04 13:32:00,
2013-07-04 06:37:00,56.2,47.6,27.44,SE,135,2.9,2.9,73,0.00,,,0.00,WUHU216HW,2013-07-04 13:37:00,
2013-07-04 06:42:00,56.5,47.6,27.44,SE,135,0.7,2.9,72,0.00,,,0.00,WUHU216HW,2013-07-04 13:42:00,
2013-07-04 06:47:00,56.9,47.5,27.44,East,90,0.4,1.1,71,0.00,,,0.00,WUHU216HW,2013-07-04 13:47:00,
2013-07-04 06:52:00,57.2,47.9,27.44,ESE,113,0.4,1.8,71,0.00,,,0.00,WUHU216HW,2013-07-04 13:52:00,
2013-07-04 06:57:00,57.6,47.5,27.44,SSE,158,0.2,1.8,69,0.00,,,0.00,WUHU216HW,2013-07-04 13:57:00,
2013-07-04 07:02:00,58.3,46.5,27.44,SSE,158,0.2,1.6,65,0.00,,,0.00,WUHU216HW,2013-07-04 14:02:00,
2013-07-04 07:07:00,59.0,46.8,27.45,SSE,158,2.5,4.7,64,0.00,,,0.00,WUHU216HW,2013-07-04 14:07:00,
2013-07-04 07:12:00,59.8,46.7,27.45,ENE,68,3.6,4.7,62,0.00,,,0.00,WUHU216HW,2013-07-04 14:12:00,
2013-07-04 07:17:00,60.3,46.9,27.45,South,180,1.1,3.6,61,0.00,,,0.00,WUHU216HW,2013-07-04 14:17:00,
2013-07-04 07:22:00,60.8,46.5,27.45,SE,135,2.5,4.7,59,0.00,,,0.00,WUHU216HW,2013-07-04 14:22:00,
2013-07-04 07:27:00,61.0,47.5,27.45,SW,225,2.0,4.7,61,0.00,,,0.00,WUHU216HW,2013-07-04 14:27:00,
2013-07-04 07:32:00,61.4,47.0,27.45,SSW,203,1.8,2.2,59,0.00,,,0.00,WUHU216HW,2013-07-04 14:32:00,
2013-07-04 07:37:00,61.6,47.6,27.45,South,180,0.4,2.2,60,0.00,,,0.00,WUHU216HW,2013-07-04 14:37:00,
2013-07-04 07:42:00,62.3,47.8,27.45,SW,225,0.4,2.0,59,0.00,,,0.00,WUHU216HW,2013-07-04 14:42:00,
2013-07-04 07:47:00,62.8,46.8,27.45,SE,135,1.3,2.0,56,0.00,,,0.00,WUHU216HW,2013-07-04 14:47:00,
2013-07-04 07:52:00,63.4,45.4,27.45,SE,135,1.1,2.5,52,0.00,,,0.00,WUHU216HW,2013-07-04 14:52:00,
2013-07-04 07:57:00,64.1,47.0,27.45,SE,135,1.6,2.7,54,0.00,,,0.00,WUHU216HW,2013-07-04 14:57:00,
2013-07-04 08:02:00,64.6,47.0,27.45,SSE,158,1.1,2.7,53,0.00,,,0.00,WUHU216HW,2013-07-04 15:02:00,
2013-07-04 08:07:00,65.3,47.7,27.45,SSW,203,1.6,3.4,53,0.00,,,0.00,WUHU216HW,2013-07-04 15:07:00,
2013-07-04 08:12:00,65.9,47.8,27.45,South,180,2.2,3.4,52,0.00,,,0.00,WUHU216HW,2013-07-04 15:12:00,
2013-07-04 08:17:00,66.1,47.0,27.45,SSE,158,1.8,3.4,50,0.00,,,0.00,WUHU216HW,2013-07-04 15:17:00,
2013-07-04 08:22:00,66.6,47.5,27.45,SE,135,0.7,3.4,50,0.00,,,0.00,WUHU216HW,2013-07-04 15:22:00,
2013-07-04 08:27:00,67.0,47.8,27.45,SSE,158,2.0,2.0,50,0.00,,,0.00,WUHU216HW,2013-07-04 15:27:00,
2013-07-04 08:32:00,67.5,48.3,27.45,SSW,203,0.7,2.7,50,0.00,,,0.00,WUHU216HW,2013-07-04 15:32:00,
2013-07-04 08:37:00,68.0,48.2,27.45,South,180,2.5,2.7,49,0.00,,,0.00,WUHU216HW,2013-07-04 15:37:00,
2013-07-04 08:42:00,68.4,46.7,27.45,South,180,1.6,2.5,46,0.00,,,0.00,WUHU216HW,2013-07-04 15:42:00,
2013-07-04 08:47:00,68.8,47.6,27.45,SW,225,2.2,2.2,47,0.00,,,0.00,WUHU216HW,2013-07-04 15:47:00,
2013-07-04 08:52:00,69.3,48.2,27.45,ESE,113,1.8,2.2,47,0.00,,,0.00,WUHU216HW,2013-07-04 15:52:00,
2013-07-04 08:57:00,69.7,47.3,27.45,ESE,113,2.5,2.5,45,0.00,,,0.00,WUHU216HW,2013-07-04 15:57:00,
2013-07-04 09:02:00,70.0,49.4,27.45,SSE,158,1.1,2.5,48,0.00,,,0.00,WUHU216HW,2013-07-04 16:02:00,
2013-07-04 09:07:00,70.6,49.2,27.45,SSE,158,2.7,3.8,47,0.00,,,0.00,WUHU216HW,2013-07-04 16:07:00,
2013-07-04 09:12:00,71.1,50.3,27.45,SSW,203,1.6,3.8,48,0.00,,,0.00,WUHU216HW,2013-07-04 16:12:00,
2013-07-04 09:17:00,71.6,49.1,27.45,SE,135,3.4,3.4,45,0.00,,,0.00,WUHU216HW,2013-07-04 16:17:00,
2013-07-04 09:22:00,71.3,50.0,27.45,SSE,158,0.9,5.1,47,0.00,,,0.00,WUHU216HW,2013-07-04 16:22:00,
2013-07-04 09:27:00,71.3,49.3,27.45,WSW,248,2.2,5.1,46,0.00,,,0.00,WUHU216HW,2013-07-04 16:27:00,
2013-07-04 09:32:00,71.5,49.5,27.45,SSE,158,3.1,3.4,46,0.00,,,0.00,WUHU216HW,2013-07-04 16:32:00,
2013-07-04 09:37:00,71.6,49.1,27.44,SW,225,4.0,5.8,45,0.00,,,0.00,WUHU216HW,2013-07-04 16:37:00,
2013-07-04 09:42:00,72.4,50.3,27.45,SSW,203,2.7,5.8,46,0.00,,,0.00,WUHU216HW,2013-07-04 16:42:00,
2013-07-04 09:47:00,72.9,49.6,27.45,SSW,203,3.1,3.8,44,0.00,,,0.00,WUHU216HW,2013-07-04 16:47:00,
2013-07-04 09:52:00,73.1,49.8,27.44,SSW,203,2.0,3.8,44,0.00,,,0.00,WUHU216HW,2013-07-04 16:52:00,
2013-07-04 09:57:00,73.3,48.7,27.44,SSE,158,2.9,3.6,42,0.00,,,0.00,WUHU216HW,2013-07-04 16:57:00,
2013-07-04 10:02:00,73.4,49.5,27.44,SW,225,0.9,4.5,43,0.00,,,0.00,WUHU216HW,2013-07-04 17:02:00,
2013-07-04 10:07:00,73.8,48.6,27.44,ESE,113,5.4,5.4,41,0.00,,,0.00,WUHU216HW,2013-07-04 17:07:00,
2013-07-04 10:12:00,73.8,49.9,27.44,SSW,203,2.7,5.4,43,0.00,,,0.00,WUHU216HW,2013-07-04 17:12:00,
2013-07-04 10:17:00,74.2,50.8,27.44,ESE,113,1.1,3.1,44,0.00,,,0.00,WUHU216HW,2013-07-04 17:17:00,
2013-07-04 10:22:00,74.7,50.7,27.44,SW,225,1.8,4.0,43,0.00,,,0.00,WUHU216HW,2013-07-04 17:22:00,
2013-07-04 10:27:00,74.9,49.6,27.44,SSE,158,5.4,5.4,41,0.00,,,0.00,WUHU216HW,2013-07-04 17:27:00,
2013-07-04 10:32:00,74.7,51.3,27.44,SSW,203,2.0,5.4,44,0.00,,,0.00,WUHU216HW,2013-07-04 17:32:00,
2013-07-04 10:37:00,75.1,49.8,27.44,SW,225,3.8,5.1,41,0.00,,,0.00,WUHU216HW,2013-07-04 17:37:00,
2013-07-04 10:42:00,75.2,50.6,27.44,SW,225,2.5,5.1,42,0.00,,,0.00,WUHU216HW,2013-07-04 17:42:00,
2013-07-04 10:47:00,75.6,50.2,27.44,SW,225,1.8,4.0,41,0.00,,,0.00,WUHU216HW,2013-07-04 17:47:00,
2013-07-04 10:52:00,75.6,48.2,27.44,SE,135,6.7,6.7,38,0.00,,,0.00,WUHU216HW,2013-07-04 17:52:00,
2013-07-04 10:57:00,75.6,48.2,27.44,SE,135,2.5,6.7,38,0.00,,,0.00,WUHU216HW,2013-07-04 17:57:00,
2013-07-04 11:02:00,76.0,51.2,27.44,East,90,2.0,5.4,42,0.00,,,0.00,WUHU216HW,2013-07-04 18:02:00,
2013-07-04 11:07:00,76.1,50.1,27.44,South,180,1.8,4.7,40,0.00,,,0.00,WUHU216HW,2013-07-04 18:07:00,
2013-07-04 11:12:00,76.3,51.0,27.44,ESE,113,2.5,4.7,41,0.00,,,0.00,WUHU216HW,2013-07-04 18:12:00,
2013-07-04 11:17:00,76.3,51.0,27.44,SW,225,2.7,4.7,41,0.00,,,0.00,WUHU216HW,2013-07-04 18:17:00,
2013-07-04 11:22:00,76.5,49.7,27.44,SSW,203,3.1,4.0,39,0.00,,,0.00,WUHU216HW,2013-07-04 18:22:00,
2013-07-04 11:27:00,77.0,50.2,27.44,SSE,158,1.8,5.6,39,0.00,,,0.00,WUHU216HW,2013-07-04 18:27:00,
2013-07-04 11:32:00,77.0,50.9,27.44,SE,135,1.8,5.6,40,0.00,,,0.00,WUHU216HW,2013-07-04 18:32:00,
2013-07-04 11:37:00,77.4,51.8,27.43,SW,225,3.4,3.6,41,0.00,,,0.00,WUHU216HW,2013-07-04 18:37:00,
2013-07-04 11:42:00,77.4,47.4,27.44,East,90,4.0,4.0,35,0.00,,,0.00,WUHU216HW,2013-07-04 18:42:00,
2013-07-04 11:47:00,77.8,49.3,27.44,SSW,203,5.8,5.8,37,0.00,,,0.00,WUHU216HW,2013-07-04 18:47:00,
2013-07-04 11:52:00,77.9,50.2,27.44,SSW,203,2.5,5.8,38,0.00,,,0.00,WUHU216HW,2013-07-04 18:52:00,
2013-07-04 11:57:00,78.1,49.6,27.43,SE,135,2.2,4.7,37,0.00,,,0.00,WUHU216HW,2013-07-04 18:57:00,
2013-07-04 12:02:00,78.5,48.4,27.44,SW,225,3.8,9.2,35,0.00,,,0.00,WUHU216HW,2013-07-04 19:02:00,
2013-07-04 12:07:00,78.5,50.0,27.43,WSW,248,3.1,9.2,37,0.00,,,0.00,WUHU216HW,2013-07-04 19:07:00,
2013-07-04 12:12:00,78.8,47.9,27.43,SSW,203,5.1,8.3,34,0.00,,,0.00,WUHU216HW,2013-07-04 19:12:00,
2013-07-04 12:17:00,79.0,47.4,27.43,SSW,203,2.5,5.1,33,0.00,,,0.00,WUHU216HW,2013-07-04 19:17:00,
2013-07-04 12:22:00,79.2,49.1,27.43,SSW,203,5.4,5.4,35,0.00,,,0.00,WUHU216HW,2013-07-04 19:22:00,
2013-07-04 12:27:00,79.4,48.4,27.43,South,180,1.3,5.8,34,0.00,,,0.00,WUHU216HW,2013-07-04 19:27:00,
2013-07-04 12:32:00,79.6,47.8,27.43,SW,225,7.2,7.2,33,0.00,,,0.00,WUHU216HW,2013-07-04 19:32:00,
2013-07-04 12:37:00,79.7,51.0,27.43,South,180,2.0,7.2,37,0.00,,,0.00,WUHU216HW,2013-07-04 19:37:00,
2013-07-04 12:42:00,79.9,48.9,27.43,SSW,203,2.9,4.9,34,0.00,,,0.00,WUHU216HW,2013-07-04 19:42:00,
2013-07-04 12:47:00,79.9,48.9,27.43,ESE,113,3.8,5.4,34,0.00,,,0.00,WUHU216HW,2013-07-04 19:47:00,
2013-07-04 12:52:00,79.9,48.2,27.43,SSW,203,5.6,5.6,33,0.00,,,0.00,WUHU216HW,2013-07-04 19:52:00,
2013-07-04 12:57:00,80.1,48.2,27.43,South,180,2.2,7.4,33,0.00,,,0.00,WUHU216HW,2013-07-04 19:57:00,
2013-07-04 13:02:00,79.9,49.7,27.43,SSW,203,2.5,7.4,35,0.00,,,0.00,WUHU216HW,2013-07-04 20:02:00,
2013-07-04 13:07:00,80.3,50.0,27.43,SW,225,5.4,5.4,35,0.00,,,0.00,WUHU216HW,2013-07-04 20:07:00,
2013-07-04 13:12:00,80.6,50.3,27.43,SSE,158,0.2,6.0,35,0.00,,,0.00,WUHU216HW,2013-07-04 20:12:00,
2013-07-04 13:17:00,80.8,49.7,27.42,SSW,203,1.8,6.0,34,0.00,,,0.00,WUHU216HW,2013-07-04 20:17:00,
2013-07-04 13:22:00,81.4,48.6,27.42,SW,225,3.6,6.0,32,0.00,,,0.00,WUHU216HW,2013-07-04 20:22:00,
2013-07-04 13:27:00,81.4,48.6,27.42,SW,225,5.6,5.6,32,0.00,,,0.00,WUHU216HW,2013-07-04 20:27:00,
2013-07-04 13:32:00,81.4,50.1,27.42,SW,225,2.7,8.7,34,0.00,,,0.00,WUHU216HW,2013-07-04 20:32:00,
2013-07-04 13:37:00,81.5,47.2,27.42,SSW,203,2.7,8.7,30,0.00,,,0.00,WUHU216HW,2013-07-04 20:37:00,
2013-07-04 13:42:00,81.7,51.2,27.42,South,180,1.8,4.7,35,0.00,,,0.00,WUHU216HW,2013-07-04 20:42:00,
2013-07-04 13:47:00,81.9,49.1,27.42,WSW,248,3.4,5.1,32,0.00,,,0.00,WUHU216HW,2013-07-04 20:47:00,
2013-07-04 13:52:00,81.9,48.3,27.42,SSW,203,3.6,5.1,31,0.00,,,0.00,WUHU216HW,2013-07-04 20:52:00,
2013-07-04 13:57:00,81.9,48.3,27.41,SSW,203,2.9,4.9,31,0.00,,,0.00,WUHU216HW,2013-07-04 20:57:00,
2013-07-04 14:02:00,81.7,47.4,27.41,SE,135,2.5,3.6,30,0.00,,,0.00,WUHU216HW,2013-07-04 21:02:00,
2013-07-04 14:07:00,81.5,49.5,27.41,SW,225,2.5,4.0,33,0.00,,,0.00,WUHU216HW,2013-07-04 21:07:00,
2013-07-04 14:12:00,82.1,47.6,27.41,WSW,248,2.0,5.4,30,0.00,,,0.00,WUHU216HW,2013-07-04 21:12:00,
2013-07-04 14:17:00,82.3,47.7,27.41,SW,225,2.5,5.4,30,0.00,,,0.00,WUHU216HW,2013-07-04 21:17:00,
2013-07-04 14:22:00,82.4,47.9,27.41,SW,225,4.7,4.9,30,0.00,,,0.00,WUHU216HW,2013-07-04 21:22:00,
2013-07-04 14:27:00,82.6,47.0,27.40,SSE,158,0.9,4.9,29,0.00,,,0.00,WUHU216HW,2013-07-04 21:27:00,
2013-07-04 14:32:00,83.0,47.4,27.40,SSE,158,1.1,2.2,29,0.00,,,0.00,WUHU216HW,2013-07-04 21:32:00,
2013-07-04 14:37:00,83.0,48.3,27.40,SSE,158,1.8,3.1,30,0.00,,,0.00,WUHU216HW,2013-07-04 21:37:00,
2013-07-04 14:42:00,83.3,50.3,27.40,SSE,158,1.8,4.0,32,0.00,,,0.00,WUHU216HW,2013-07-04 21:42:00,
2013-07-04 14:47:00,83.7,49.1,27.40,SSW,203,5.4,5.4,30,0.00,,,0.00,WUHU216HW,2013-07-04 21:47:00,
2013-07-04 14:52:00,83.9,49.1,27.40,SSW,203,3.6,5.4,30,0.00,,,0.00,WUHU216HW,2013-07-04 21:52:00,
2013-07-04 14:57:00,84.2,50.3,27.40,SE,135,1.1,3.6,31,0.00,,,0.00,WUHU216HW,2013-07-04 21:57:00,
2013-07-04 15:02:00,84.2,48.4,27.40,SSW,203,0.7,3.8,29,0.00,,,0.00,WUHU216HW,2013-07-04 22:02:00,
2013-07-04 15:07:00,84.4,47.5,27.39,WSW,248,6.3,6.3,28,0.00,,,0.00,WUHU216HW,2013-07-04 22:07:00,
2013-07-04 15:12:00,84.2,47.3,27.40,SW,225,2.5,6.3,28,0.00,,,0.00,WUHU216HW,2013-07-04 22:12:00,
2013-07-04 15:17:00,84.2,48.4,27.40,SSW,203,4.0,4.7,29,0.00,,,0.00,WUHU216HW,2013-07-04 22:17:00,
2013-07-04 15:22:00,84.6,48.8,27.39,WSW,248,3.1,4.7,29,0.00,,,0.00,WUHU216HW,2013-07-04 22:22:00,
2013-07-04 15:27:00,84.4,47.5,27.39,East,90,1.8,5.1,28,0.00,,,0.00,WUHU216HW,2013-07-04 22:27:00,
2013-07-04 15:32:00,83.9,48.2,27.39,SW,225,3.4,5.1,29,0.00,,,0.00,WUHU216HW,2013-07-04 22:32:00,
2013-07-04 15:37:00,83.9,48.2,27.39,WSW,248,3.6,4.5,29,0.00,,,0.00,WUHU216HW,2013-07-04 22:37:00,
2013-07-04 15:42:00,84.2,48.4,27.38,ESE,113,4.0,4.9,29,0.00,,,0.00,WUHU216HW,2013-07-04 22:42:00,
2013-07-04 15:47:00,84.1,48.2,27.38,SW,225,2.5,4.9,29,0.00,,,0.00,WUHU216HW,2013-07-04 22:47:00,
2013-07-04 15:52:00,84.1,47.3,27.38,SW,225,4.7,4.9,28,0.00,,,0.00,WUHU216HW,2013-07-04 22:52:00,
2013-07-04 15:57:00,84.1,48.2,27.38,SW,225,4.7,4.9,29,0.00,,,0.00,WUHU216HW,2013-07-04 22:57:00,
2013-07-04 16:02:00,84.1,48.2,27.38,SW,225,2.0,4.7,29,0.00,,,0.00,WUHU216HW,2013-07-04 23:02:00,
2013-07-04 16:07:00,84.1,48.2,27.38,SSE,158,1.1,4.7,29,0.00,,,0.00,WUHU216HW,2013-07-04 23:07:00,
2013-07-04 16:12:00,83.7,49.8,27.38,SSE,158,1.1,4.0,31,0.00,,,0.00,WUHU216HW,2013-07-04 23:12:00,
2013-07-04 16:17:00,83.9,46.0,27.37,WSW,248,4.7,4.7,27,0.00,,,0.00,WUHU216HW,2013-07-04 23:17:00,
2013-07-04 16:22:00,83.9,47.1,27.37,SW,225,0.9,5.8,28,0.00,,,0.00,WUHU216HW,2013-07-04 23:22:00,
2013-07-04 16:27:00,83.9,47.1,27.37,SSE,158,1.8,5.8,28,0.00,,,0.00,WUHU216HW,2013-07-04 23:27:00,
2013-07-04 16:32:00,83.7,43.8,27.36,East,90,5.6,5.6,25,0.00,,,0.00,WUHU216HW,2013-07-04 23:32:00,
2013-07-04 16:37:00,83.9,44.9,27.37,SSW,203,4.0,5.6,26,0.00,,,0.00,WUHU216HW,2013-07-04 23:37:00,
2013-07-04 16:42:00,83.5,44.7,27.37,South,180,0.9,5.4,26,0.00,,,0.00,WUHU216HW,2013-07-04 23:42:00,
2013-07-04 16:47:00,83.9,44.9,27.37,SW,225,4.7,4.7,26,0.00,,,0.00,WUHU216HW,2013-07-04 23:47:00,
2013-07-04 16:52:00,83.9,47.1,27.37,SW,225,5.4,6.3,28,0.00,,,0.00,WUHU216HW,2013-07-04 23:52:00,
2013-07-04 16:57:00,83.5,45.7,27.36,WSW,248,2.5,6.3,27,0.00,,,0.00,WUHU216HW,2013-07-04 23:57:00,
2013-07-04 17:02:00,83.5,46.7,27.36,SW,225,1.6,4.3,28,0.00,,,0.00,WUHU216HW,2013-07-05 00:02:00,
2013-07-04 17:07:00,83.7,46.9,27.36,SW,225,3.4,4.0,28,0.00,,,0.00,WUHU216HW,2013-07-05 00:07:00,
2013-07-04 17:12:00,83.9,44.9,27.36,SW,225,3.4,4.7,26,0.00,,,0.00,WUHU216HW,2013-07-05 00:12:00,
2013-07-04 17:17:00,83.9,44.9,27.35,WSW,248,3.6,4.7,26,0.00,,,0.00,WUHU216HW,2013-07-05 00:17:00,
2013-07-04 17:23:00,83.5,46.7,27.36,SSW,203,4.0,5.6,28,0.00,,,0.00,WUHU216HW,2013-07-05 00:23:00,
2013-07-04 17:28:00,83.7,46.9,27.35,West,270,0.4,5.6,28,0.00,,,0.00,WUHU216HW,2013-07-05 00:28:00,
2013-07-04 17:33:00,83.9,47.1,27.35,South,180,1.6,2.7,28,0.00,,,0.00,WUHU216HW,2013-07-05 00:33:00,
2013-07-04 17:38:00,83.7,44.8,27.35,WSW,248,2.2,4.7,26,0.00,,,0.00,WUHU216HW,2013-07-05 00:38:00,
2013-07-04 17:42:00,83.5,44.7,27.35,SSW,203,1.1,4.7,26,0.00,,,0.00,WUHU216HW,2013-07-05 00:42:00,
2013-07-04 17:48:00,83.5,45.7,27.35,South,180,1.8,3.4,27,0.00,,,0.00,WUHU216HW,2013-07-05 00:48:00,
2013-07-04 17:53:00,83.3,46.6,27.35,SW,225,3.4,3.4,28,0.00,,,0.00,WUHU216HW,2013-07-05 00:53:00,
2013-07-04 17:58:00,83.2,46.5,27.35,SSW,203,1.8,3.4,28,0.00,,,0.00,WUHU216HW,2013-07-05 00:58:00,
2013-07-04 18:03:00,83.2,44.3,27.34,SSW,203,1.8,2.9,26,0.00,,,0.00,WUHU216HW,2013-07-05 01:03:00,
2013-07-04 18:08:00,83.0,44.2,27.34,WSW,248,1.8,2.9,26,0.00,,,0.00,WUHU216HW,2013-07-05 01:08:00,
2013-07-04 18:13:00,82.6,43.8,27.34,SSW,203,2.5,2.7,26,0.00,,,0.00,WUHU216HW,2013-07-05 01:13:00,
2013-07-04 18:18:00,82.4,42.7,27.35,WSW,248,4.5,4.5,25,0.00,,,0.00,WUHU216HW,2013-07-05 01:18:00,
2013-07-04 18:23:00,82.1,43.4,27.34,WSW,248,2.5,4.5,26,0.00,,,0.00,WUHU216HW,2013-07-05 01:23:00,
2013-07-04 18:28:00,81.7,43.1,27.34,SW,225,2.2,3.4,26,0.00,,,0.00,WUHU216HW,2013-07-05 01:28:00,
2013-07-04 18:33:00,81.5,43.0,27.34,SW,225,3.1,4.7,26,0.00,,,0.00,WUHU216HW,2013-07-05 01:33:00,
2013-07-04 18:38:00,81.2,42.7,27.34,SW,225,1.1,4.7,26,0.00,,,0.00,WUHU216HW,2013-07-05 01:38:00,
2013-07-04 18:43:00,81.0,42.6,27.34,SW,225,3.6,3.6,26,0.00,,,0.00,WUHU216HW,2013-07-05 01:43:00,
2013-07-04 18:48:00,81.0,42.6,27.34,SW,225,3.8,4.0,26,0.00,,,0.00,WUHU216HW,2013-07-05 01:48:00,
2013-07-04 18:52:00,80.8,42.4,27.34,SW,225,2.5,4.0,26,0.00,,,0.00,WUHU216HW,2013-07-05 01:52:00,
2013-07-04 18:58:00,80.5,41.0,27.34,SSW,203,2.2,3.1,25,0.00,,,0.00,WUHU216HW,2013-07-05 01:58:00,
2013-07-04 19:02:00,80.5,42.1,27.34,SSW,203,2.2,3.4,26,0.00,,,0.00,WUHU216HW,2013-07-05 02:02:00,
2013-07-04 19:08:00,80.3,44.0,27.33,SW,225,2.2,3.4,28,0.00,,,0.00,WUHU216HW,2013-07-05 02:08:00,
2013-07-04 19:13:00,80.1,43.8,27.33,SW,225,2.0,2.2,28,0.00,,,0.00,WUHU216HW,2013-07-05 02:13:00,
2013-07-04 19:18:00,79.9,43.8,27.33,West,270,2.5,3.4,28,0.00,,,0.00,WUHU216HW,2013-07-05 02:18:00,
2013-07-04 19:23:00,79.6,43.4,27.33,SSW,203,2.0,3.4,28,0.00,,,0.00,WUHU216HW,2013-07-05 02:23:00,
2013-07-04 19:28:00,79.6,43.4,27.33,SW,225,1.1,3.1,28,0.00,,,0.00,WUHU216HW,2013-07-05 02:28:00,
2013-07-04 19:33:00,79.2,44.1,27.34,SW,225,0.4,2.5,29,0.00,,,0.00,WUHU216HW,2013-07-05 02:33:00,
2013-07-04 19:38:00,78.8,43.7,27.33,SW,225,1.1,2.5,29,0.00,,,0.00,WUHU216HW,2013-07-05 02:38:00,
2013-07-04 19:43:00,78.8,44.8,27.33,SW,225,0.4,1.3,30,0.00,,,0.00,WUHU216HW,2013-07-05 02:43:00,
2013-07-04 19:48:00,78.5,43.5,27.33,SSW,203,1.3,1.6,29,0.00,,,0.00,WUHU216HW,2013-07-05 02:48:00,
2013-07-04 19:53:00,78.1,44.3,27.33,SW,225,0.7,1.8,30,0.00,,,0.00,WUHU216HW,2013-07-05 02:53:00,
2013-07-04 19:58:00,77.8,43.9,27.33,SSW,203,1.1,1.8,30,0.00,,,0.00,WUHU216HW,2013-07-05 02:58:00,
2013-07-04 20:03:00,77.6,43.8,27.33,WSW,248,0.7,1.8,30,0.00,,,0.00,WUHU216HW,2013-07-05 03:03:00,
2013-07-04 20:08:00,77.2,44.3,27.33,SW,225,0.7,1.6,31,0.00,,,0.00,WUHU216HW,2013-07-05 03:08:00,
2013-07-04 20:13:00,77.0,44.1,27.33,SSW,203,0.4,1.1,31,0.00,,,0.00,WUHU216HW,2013-07-05 03:13:00,
2013-07-04 20:18:00,76.7,43.8,27.33,SSW,203,0.0,1.1,31,0.00,,,0.00,WUHU216HW,2013-07-05 03:18:00,
2013-07-04 20:23:00,76.3,44.3,27.33,SSW,203,0.0,0.4,32,0.00,,,0.00,WUHU216HW,2013-07-05 03:23:00,
2013-07-04 20:28:00,76.0,45.5,27.33,East,90,0.0,0.0,34,0.00,,,0.00,WUHU216HW,2013-07-05 03:28:00,
2013-07-04 20:33:00,75.4,45.7,27.33,East,90,0.0,0.0,35,0.00,,,0.00,WUHU216HW,2013-07-05 03:33:00,
2013-07-04 20:38:00,74.7,45.1,27.33,East,90,0.0,0.0,35,0.00,,,0.00,WUHU216HW,2013-07-05 03:38:00,
2013-07-04 20:43:00,74.0,45.9,27.33,East,90,0.0,0.0,37,0.00,,,0.00,WUHU216HW,2013-07-05 03:43:00,
2013-07-04 20:48:00,73.3,46.0,27.33,East,90,0.0,0.0,38,0.00,,,0.00,WUHU216HW,2013-07-05 03:48:00,
2013-07-04 20:52:00,72.5,45.4,27.33,East,90,0.0,0.0,38,0.00,,,0.00,WUHU216HW,2013-07-05 03:52:00,
2013-07-04 20:57:00,71.8,46.3,27.33,East,90,0.0,0.0,40,0.00,,,0.00,WUHU216HW,2013-07-05 03:57:00,
2013-07-04 21:01:00,71.5,45.9,27.33,East,90,0.0,0.0,40,0.00,,,0.00,WUHU216HW,2013-07-05 04:01:00,
2013-07-04 21:06:00,70.9,46.0,27.33,ENE,68,0.0,0.0,41,0.00,,,0.00,WUHU216HW,2013-07-05 04:06:00,
2013-07-04 21:11:00,70.2,46.0,27.34,ENE,68,0.0,0.0,42,0.00,,,0.00,WUHU216HW,2013-07-05 04:11:00,
2013-07-04 21:16:00,69.5,45.4,27.34,East,90,0.0,0.0,42,0.00,,,0.00,WUHU216HW,2013-07-05 04:16:00,
2013-07-04 21:21:00,68.9,44.8,27.34,East,90,0.0,0.0,42,0.00,,,0.00,WUHU216HW,2013-07-05 04:21:00,
2013-07-04 21:26:00,68.6,45.7,27.34,ENE,68,0.2,0.7,44,0.00,,,0.00,WUHU216HW,2013-07-05 04:26:00,
2013-07-04 21:31:00,68.2,44.8,27.34,ENE,68,0.0,0.7,43,0.00,,,0.00,WUHU216HW,2013-07-05 04:31:00,
2013-07-04 21:36:00,67.9,44.5,27.34,ENE,68,0.4,0.4,43,0.00,,,0.00,WUHU216HW,2013-07-05 04:36:00,
2013-07-04 21:41:00,67.5,44.7,27.34,ENE,68,0.0,0.4,44,0.00,,,0.00,WUHU216HW,2013-07-05 04:41:00,
2013-07-04 21:46:00,67.3,44.6,27.34,ENE,68,0.0,0.0,44,0.00,,,0.00,WUHU216HW,2013-07-05 04:46:00,
2013-07-04 21:51:00,67.0,44.8,27.34,ENE,68,0.0,0.0,45,0.00,,,0.00,WUHU216HW,2013-07-05 04:51:00,
2013-07-04 21:56:00,66.6,45.1,27.34,ENE,68,0.0,0.0,46,0.00,,,0.00,WUHU216HW,2013-07-05 04:56:00,
2013-07-04 22:01:00,66.2,44.8,27.34,ENE,68,0.0,0.0,46,0.00,,,0.00,WUHU216HW,2013-07-05 05:01:00,
2013-07-04 22:06:00,65.9,44.5,27.34,ENE,68,0.0,0.0,46,0.00,,,0.00,WUHU216HW,2013-07-05 05:06:00,
2013-07-04 22:11:00,65.7,44.8,27.34,ENE,68,0.0,0.0,47,0.00,,,0.00,WUHU216HW,2013-07-05 05:11:00,
2013-07-04 22:16:00,65.5,44.6,27.34,ENE,68,0.0,0.0,47,0.00,,,0.00,WUHU216HW,2013-07-05 05:16:00,
2013-07-04 22:21:00,65.2,44.9,27.34,ENE,68,0.0,0.0,48,0.00,,,0.00,WUHU216HW,2013-07-05 05:21:00,
2013-07-04 22:26:00,65.0,44.7,27.34,ENE,68,0.0,0.0,48,0.00,,,0.00,WUHU216HW,2013-07-05 05:26:00,
2013-07-04 22:31:00,64.6,44.4,27.34,ENE,68,0.0,0.0,48,0.00,,,0.00,WUHU216HW,2013-07-05 05:31:00,
2013-07-04 22:36:00,64.3,44.0,27.34,ENE,68,0.0,0.0,48,0.00,,,0.00,WUHU216HW,2013-07-05 05:36:00,
2013-07-04 22:41:00,64.1,43.9,27.34,East,90,0.0,0.0,48,0.00,,,0.00,WUHU216HW,2013-07-05 05:41:00,
2013-07-04 22:46:00,63.7,43.6,27.34,East,90,0.0,0.0,48,0.00,,,0.00,WUHU216HW,2013-07-05 05:46:00,
2013-07-04 22:51:00,63.7,43.6,27.33,East,90,0.0,0.0,48,0.00,,,0.00,WUHU216HW,2013-07-05 05:51:00,
2013-07-04 22:56:00,63.4,43.2,27.33,East,90,0.0,0.0,48,0.00,,,0.00,WUHU216HW,2013-07-05 05:56:00,
2013-07-04 23:01:00,63.4,43.8,27.34,East,90,0.0,0.0,49,0.00,,,0.00,WUHU216HW,2013-07-05 06:01:00,
2013-07-04 23:06:00,63.4,43.8,27.34,ENE,68,0.0,0.0,49,0.00,,,0.00,WUHU216HW,2013-07-05 06:06:00,
2013-07-04 23:11:00,63.0,44.1,27.34,ENE,68,0.4,0.4,50,0.00,,,0.00,WUHU216HW,2013-07-05 06:11:00,
2013-07-04 23:16:00,62.6,43.7,27.34,ENE,68,0.0,0.4,50,0.00,,,0.00,WUHU216HW,2013-07-05 06:16:00,
2013-07-04 23:21:00,62.5,44.1,27.33,ENE,68,0.0,0.4,51,0.00,,,0.00,WUHU216HW,2013-07-05 06:21:00,
2013-07-04 23:26:00,61.9,44.1,27.33,ENE,68,0.0,0.0,52,0.00,,,0.00,WUHU216HW,2013-07-05 06:26:00,
2013-07-04 23:31:00,61.6,43.7,27.33,ENE,68,0.0,0.2,52,0.00,,,0.00,WUHU216HW,2013-07-05 06:31:00,
2013-07-04 23:36:00,61.2,43.9,27.33,ENE,68,0.0,0.7,53,0.00,,,0.00,WUHU216HW,2013-07-05 06:36:00,
2013-07-04 23:41:00,60.8,43.6,27.33,ENE,68,0.0,0.7,53,0.00,,,0.00,WUHU216HW,2013-07-05 06:41:00,
2013-07-04 23:46:00,60.7,43.4,27.33,ENE,68,0.0,0.0,53,0.00,,,0.00,WUHU216HW,2013-07-05 06:46:00,
2013-07-04 23:51:00,60.3,43.1,27.33,ENE,68,0.0,0.0,53,0.00,,,0.00,WUHU216HW,2013-07-05 06:51:00,
2013-07-04 23:56:00,60.1,43.4,27.33,ENE,68,0.0,0.0,54,0.00,,,0.00,WUHU216HW,2013-07-05 06:56:00,